sensor_id;sensor_type;location;lat;lon;timestamp;temperature;humidity
71237;DHT22;58984;51.960;5.582;2022-09-09T00:04:26;24.90;50.10
71237;DHT22;58984;51.960;5.582;2022-09-09T00:12:39;24.80;50.10
71237;DHT22;58984;51.960;5.582;2022-09-09T00:15:12;24.80;50.10
71237;DHT22;58984;51.960;5.582;2022-09-09T00:17:39;24.80;50.20
71237;DHT22;58984;51.960;5.582;2022-09-09T00:22:52;24.70;50.30
71237;DHT22;58984;51.960;5.582;2022-09-09T00:25:26;24.70;50.30
71237;DHT22;58984;51.960;5.582;2022-09-09T00:27:54;24.70;50.40
71237;DHT22;58984;51.960;5.582;2022-09-09T00:30:21;24.80;50.30
71237;DHT22;58984;51.960;5.582;2022-09-09T00:32:59;24.80;50.40
71237;DHT22;58984;51.960;5.582;2022-09-09T00:35:33;24.60;50.30
71237;DHT22;58984;51.960;5.582;2022-09-09T00:38:19;24.60;50.20
71237;DHT22;58984;51.960;5.582;2022-09-09T00:40:55;24.60;50.40
71237;DHT22;58984;51.960;5.582;2022-09-09T00:43:30;24.70;50.30
71237;DHT22;58984;51.960;5.582;2022-09-09T00:51:59;24.60;50.30
71237;DHT22;58984;51.960;5.582;2022-09-09T00:54:52;24.50;50.40
71237;DHT22;58984;51.960;5.582;2022-09-09T00:57:26;24.50;50.40
71237;DHT22;58984;51.960;5.582;2022-09-09T01:02:52;24.50;50.30
71237;DHT22;58984;51.960;5.582;2022-09-09T01:07:49;24.50;50.30
71237;DHT22;58984;51.960;5.582;2022-09-09T01:10:25;24.50;50.40
71237;DHT22;58984;51.960;5.582;2022-09-09T01:12:53;24.40;50.30
71237;DHT22;58984;51.960;5.582;2022-09-09T01:15:24;24.50;50.30
71237;DHT22;58984;51.960;5.582;2022-09-09T01:18:07;24.40;50.20
71237;DHT22;58984;51.960;5.582;2022-09-09T01:20:53;24.40;50.30
71237;DHT22;58984;51.960;5.582;2022-09-09T01:26:34;24.40;50.50
71237;DHT22;58984;51.960;5.582;2022-09-09T01:29:00;24.30;50.30
71237;DHT22;58984;51.960;5.582;2022-09-09T01:31:31;24.40;50.20
71237;DHT22;58984;51.960;5.582;2022-09-09T01:33:58;24.40;50.30
71237;DHT22;58984;51.960;5.582;2022-09-09T01:36:32;24.40;50.30
71237;DHT22;58984;51.960;5.582;2022-09-09T01:39:00;24.30;50.30
71237;DHT22;58984;51.960;5.582;2022-09-09T01:41:26;24.30;50.30
71237;DHT22;58984;51.960;5.582;2022-09-09T01:43:54;24.30;50.40
71237;DHT22;58984;51.960;5.582;2022-09-09T01:46:21;24.30;50.30
71237;DHT22;58984;51.960;5.582;2022-09-09T01:48:49;24.20;50.30
71237;DHT22;58984;51.960;5.582;2022-09-09T01:51:15;24.30;50.40
71237;DHT22;58984;51.960;5.582;2022-09-09T01:53:41;24.30;50.40
71237;DHT22;58984;51.960;5.582;2022-09-09T01:56:39;24.30;50.40
71237;DHT22;58984;51.960;5.582;2022-09-09T01:59:23;24.10;50.40
71237;DHT22;58984;51.960;5.582;2022-09-09T02:12:36;24.10;50.30
71237;DHT22;58984;51.960;5.582;2022-09-09T02:15:11;24.10;50.30
71237;DHT22;58984;51.960;5.582;2022-09-09T02:17:41;24.00;50.20
71237;DHT22;58984;51.960;5.582;2022-09-09T02:20:11;24.10;50.20
71237;DHT22;58984;51.960;5.582;2022-09-09T02:22:40;24.00;50.20
71237;DHT22;58984;51.960;5.582;2022-09-09T02:25:10;24.00;50.20
71237;DHT22;58984;51.960;5.582;2022-09-09T02:27:38;24.00;50.20
71237;DHT22;58984;51.960;5.582;2022-09-09T02:30:06;24.00;50.30
71237;DHT22;58984;51.960;5.582;2022-09-09T02:32:34;24.00;50.30
71237;DHT22;58984;51.960;5.582;2022-09-09T02:35:08;23.90;50.30
71237;DHT22;58984;51.960;5.582;2022-09-09T02:37:37;23.90;50.30
71237;DHT22;58984;51.960;5.582;2022-09-09T02:40:04;24.00;50.30
71237;DHT22;58984;51.960;5.582;2022-09-09T02:42:30;23.90;50.20
71237;DHT22;58984;51.960;5.582;2022-09-09T02:44:56;23.90;50.30
71237;DHT22;58984;51.960;5.582;2022-09-09T02:47:35;23.90;50.30
71237;DHT22;58984;51.960;5.582;2022-09-09T02:50:22;23.80;50.30
71237;DHT22;58984;51.960;5.582;2022-09-09T02:53:04;23.80;50.40
71237;DHT22;58984;51.960;5.582;2022-09-09T02:55:47;23.90;50.30
71237;DHT22;58984;51.960;5.582;2022-09-09T02:58:16;23.80;50.30
71237;DHT22;58984;51.960;5.582;2022-09-09T03:00:49;24.00;50.30
71237;DHT22;58984;51.960;5.582;2022-09-09T03:03:16;23.90;50.10
71237;DHT22;58984;51.960;5.582;2022-09-09T03:05:44;23.80;50.20
71237;DHT22;58984;51.960;5.582;2022-09-09T03:08:09;23.80;51.00
71237;DHT22;58984;51.960;5.582;2022-09-09T03:10:35;23.80;50.40
71237;DHT22;58984;51.960;5.582;2022-09-09T03:13:02;23.80;50.40
71237;DHT22;58984;51.960;5.582;2022-09-09T03:15:29;23.70;50.40
71237;DHT22;58984;51.960;5.582;2022-09-09T03:17:57;23.70;50.40
71237;DHT22;58984;51.960;5.582;2022-09-09T03:20:24;23.70;50.50
71237;DHT22;58984;51.960;5.582;2022-09-09T03:22:51;23.70;50.50
71237;DHT22;58984;51.960;5.582;2022-09-09T03:25:17;23.70;50.50
71237;DHT22;58984;51.960;5.582;2022-09-09T03:27:43;23.70;50.60
71237;DHT22;58984;51.960;5.582;2022-09-09T03:30:09;23.70;50.50
71237;DHT22;58984;51.960;5.582;2022-09-09T03:32:35;23.70;50.50
71237;DHT22;58984;51.960;5.582;2022-09-09T03:35:00;23.70;50.50
71237;DHT22;58984;51.960;5.582;2022-09-09T03:37:26;23.70;50.60
71237;DHT22;58984;51.960;5.582;2022-09-09T03:39:52;23.60;50.60
71237;DHT22;58984;51.960;5.582;2022-09-09T03:42:19;23.70;50.70
71237;DHT22;58984;51.960;5.582;2022-09-09T03:44:46;23.60;50.70
71237;DHT22;58984;51.960;5.582;2022-09-09T03:47:18;23.60;50.70
71237;DHT22;58984;51.960;5.582;2022-09-09T03:49:44;23.60;50.70
71237;DHT22;58984;51.960;5.582;2022-09-09T03:52:09;23.60;50.70
71237;DHT22;58984;51.960;5.582;2022-09-09T03:54:35;23.50;50.60
71237;DHT22;58984;51.960;5.582;2022-09-09T03:57:01;23.60;50.70
71237;DHT22;58984;51.960;5.582;2022-09-09T03:59:26;23.60;50.80
71237;DHT22;58984;51.960;5.582;2022-09-09T04:01:52;23.50;50.70
71237;DHT22;58984;51.960;5.582;2022-09-09T04:04:18;23.50;50.80
71237;DHT22;58984;51.960;5.582;2022-09-09T04:06:45;23.50;50.80
71237;DHT22;58984;51.960;5.582;2022-09-09T04:09:11;23.50;50.80
71237;DHT22;58984;51.960;5.582;2022-09-09T04:11:36;23.50;50.90
71237;DHT22;58984;51.960;5.582;2022-09-09T04:14:02;23.50;50.90
71237;DHT22;58984;51.960;5.582;2022-09-09T04:16:31;23.50;50.90
71237;DHT22;58984;51.960;5.582;2022-09-09T04:18:57;23.50;51.00
71237;DHT22;58984;51.960;5.582;2022-09-09T04:21:23;23.40;50.90
71237;DHT22;58984;51.960;5.582;2022-09-09T04:23:49;23.40;50.90
71237;DHT22;58984;51.960;5.582;2022-09-09T04:26:14;23.50;51.00
71237;DHT22;58984;51.960;5.582;2022-09-09T04:28:40;23.40;51.00
71237;DHT22;58984;51.960;5.582;2022-09-09T04:31:10;23.40;51.00
71237;DHT22;58984;51.960;5.582;2022-09-09T04:33:38;23.40;51.10
71237;DHT22;58984;51.960;5.582;2022-09-09T04:36:04;23.40;51.00
71237;DHT22;58984;51.960;5.582;2022-09-09T04:38:30;23.40;51.00
71237;DHT22;58984;51.960;5.582;2022-09-09T04:40:56;23.40;51.20
71237;DHT22;58984;51.960;5.582;2022-09-09T04:43:22;23.40;51.30
71237;DHT22;58984;51.960;5.582;2022-09-09T04:45:49;23.30;51.20
71237;DHT22;58984;51.960;5.582;2022-09-09T04:48:15;23.30;51.20
71237;DHT22;58984;51.960;5.582;2022-09-09T04:50:40;23.40;51.30
71237;DHT22;58984;51.960;5.582;2022-09-09T04:53:06;23.30;51.20
71237;DHT22;58984;51.960;5.582;2022-09-09T04:55:32;23.40;51.30
71237;DHT22;58984;51.960;5.582;2022-09-09T04:58:07;23.40;51.30
71237;DHT22;58984;51.960;5.582;2022-09-09T05:00:34;23.30;51.20
71237;DHT22;58984;51.960;5.582;2022-09-09T05:03:05;23.30;51.20
71237;DHT22;58984;51.960;5.582;2022-09-09T05:05:31;23.20;51.80
71237;DHT22;58984;51.960;5.582;2022-09-09T05:08:06;23.30;51.20
71237;DHT22;58984;51.960;5.582;2022-09-09T05:10:33;23.20;51.20
71237;DHT22;58984;51.960;5.582;2022-09-09T05:12:59;23.30;51.20
71237;DHT22;58984;51.960;5.582;2022-09-09T05:15:24;23.30;51.30
71237;DHT22;58984;51.960;5.582;2022-09-09T05:17:50;23.30;51.20
71237;DHT22;58984;51.960;5.582;2022-09-09T05:20:17;23.30;51.20
71237;DHT22;58984;51.960;5.582;2022-09-09T05:22:43;23.30;51.40
71237;DHT22;58984;51.960;5.582;2022-09-09T05:25:09;23.30;51.40
71237;DHT22;58984;51.960;5.582;2022-09-09T05:27:34;23.30;51.50
71237;DHT22;58984;51.960;5.582;2022-09-09T05:30:00;23.20;51.40
71237;DHT22;58984;51.960;5.582;2022-09-09T05:32:25;23.30;51.60
71237;DHT22;58984;51.960;5.582;2022-09-09T05:34:51;23.30;51.60
71237;DHT22;58984;51.960;5.582;2022-09-09T05:37:17;23.20;51.50
71237;DHT22;58984;51.960;5.582;2022-09-09T05:39:43;23.20;51.50
71237;DHT22;58984;51.960;5.582;2022-09-09T05:42:09;23.30;51.70
71237;DHT22;58984;51.960;5.582;2022-09-09T05:44:34;23.20;51.60
71237;DHT22;58984;51.960;5.582;2022-09-09T05:47:00;23.20;52.20
71237;DHT22;58984;51.960;5.582;2022-09-09T05:49:26;23.20;51.70
71237;DHT22;58984;51.960;5.582;2022-09-09T05:51:51;23.20;51.70
71237;DHT22;58984;51.960;5.582;2022-09-09T05:54:17;23.20;51.70
71237;DHT22;58984;51.960;5.582;2022-09-09T05:56:43;23.20;51.80
71237;DHT22;58984;51.960;5.582;2022-09-09T05:59:08;23.20;51.80
71237;DHT22;58984;51.960;5.582;2022-09-09T06:01:36;23.20;51.90
71237;DHT22;58984;51.960;5.582;2022-09-09T06:04:05;23.20;51.90
71237;DHT22;58984;51.960;5.582;2022-09-09T06:06:33;23.20;51.90
71237;DHT22;58984;51.960;5.582;2022-09-09T06:09:03;23.20;51.90
71237;DHT22;58984;51.960;5.582;2022-09-09T06:11:32;23.20;52.00
71237;DHT22;58984;51.960;5.582;2022-09-09T06:13:59;23.20;52.00
71237;DHT22;58984;51.960;5.582;2022-09-09T06:16:26;23.20;52.00
71237;DHT22;58984;51.960;5.582;2022-09-09T06:18:56;23.20;52.10
71237;DHT22;58984;51.960;5.582;2022-09-09T06:21:25;23.10;52.00
71237;DHT22;58984;51.960;5.582;2022-09-09T06:23:51;23.20;52.10
71237;DHT22;58984;51.960;5.582;2022-09-09T06:26:19;23.20;52.20
71237;DHT22;58984;51.960;5.582;2022-09-09T06:28:46;23.10;52.30
71237;DHT22;58984;51.960;5.582;2022-09-09T06:31:14;23.10;52.30
71237;DHT22;58984;51.960;5.582;2022-09-09T06:33:41;23.10;52.30
71237;DHT22;58984;51.960;5.582;2022-09-09T06:38:43;23.10;52.60
71237;DHT22;58984;51.960;5.582;2022-09-09T06:41:10;23.10;52.40
71237;DHT22;58984;51.960;5.582;2022-09-09T06:43:36;23.20;52.60
71237;DHT22;58984;51.960;5.582;2022-09-09T06:46:13;23.10;52.50
71237;DHT22;58984;51.960;5.582;2022-09-09T06:48:40;23.10;52.50
71237;DHT22;58984;51.960;5.582;2022-09-09T06:51:09;23.10;52.60
71237;DHT22;58984;51.960;5.582;2022-09-09T06:53:37;23.10;52.70
71237;DHT22;58984;51.960;5.582;2022-09-09T06:58:52;23.00;52.90
71237;DHT22;58984;51.960;5.582;2022-09-09T07:01:23;23.20;52.90
71237;DHT22;58984;51.960;5.582;2022-09-09T07:03:50;23.00;52.90
71237;DHT22;58984;51.960;5.582;2022-09-09T07:06:22;23.20;53.00
71237;DHT22;58984;51.960;5.582;2022-09-09T07:08:53;23.10;53.60
71237;DHT22;58984;51.960;5.582;2022-09-09T07:11:23;23.00;52.90
71237;DHT22;58984;51.960;5.582;2022-09-09T07:13:49;23.10;53.00
71237;DHT22;58984;51.960;5.582;2022-09-09T07:16:17;23.10;53.00
71237;DHT22;58984;51.960;5.582;2022-09-09T07:18:43;23.10;53.00
71237;DHT22;58984;51.960;5.582;2022-09-09T07:21:11;23.10;53.00
71237;DHT22;58984;51.960;5.582;2022-09-09T07:23:40;23.10;53.20
71237;DHT22;58984;51.960;5.582;2022-09-09T07:26:15;23.20;53.20
71237;DHT22;58984;51.960;5.582;2022-09-09T07:28:42;23.10;53.30
71237;DHT22;58984;51.960;5.582;2022-09-09T07:31:17;23.20;53.20
71237;DHT22;58984;51.960;5.582;2022-09-09T07:33:44;23.10;53.20
71237;DHT22;58984;51.960;5.582;2022-09-09T07:36:14;23.20;53.20
71237;DHT22;58984;51.960;5.582;2022-09-09T07:38:50;23.20;53.30
71237;DHT22;58984;51.960;5.582;2022-09-09T07:43:46;23.20;53.20
71237;DHT22;58984;51.960;5.582;2022-09-09T07:46:13;23.30;53.50
71237;DHT22;58984;51.960;5.582;2022-09-09T07:48:47;23.30;53.50
71237;DHT22;58984;51.960;5.582;2022-09-09T07:51:17;23.20;53.30
71237;DHT22;58984;51.960;5.582;2022-09-09T07:53:43;23.30;53.30
71237;DHT22;58984;51.960;5.582;2022-09-09T07:56:12;23.30;53.30
71237;DHT22;58984;51.960;5.582;2022-09-09T07:58:38;23.30;53.40
71237;DHT22;58984;51.960;5.582;2022-09-09T08:01:11;23.30;53.30
71237;DHT22;58984;51.960;5.582;2022-09-09T08:03:38;23.30;53.20
71237;DHT22;58984;51.960;5.582;2022-09-09T08:06:06;23.40;53.20
71237;DHT22;58984;51.960;5.582;2022-09-09T08:08:33;23.30;53.20
71237;DHT22;58984;51.960;5.582;2022-09-09T08:11:13;23.30;53.30
71237;DHT22;58984;51.960;5.582;2022-09-09T08:13:43;23.30;53.40
71237;DHT22;58984;51.960;5.582;2022-09-09T08:16:14;23.30;53.20
71237;DHT22;58984;51.960;5.582;2022-09-09T08:18:40;23.30;53.30
71237;DHT22;58984;51.960;5.582;2022-09-09T08:21:09;23.40;53.20
71237;DHT22;58984;51.960;5.582;2022-09-09T08:23:37;23.30;53.10
71237;DHT22;58984;51.960;5.582;2022-09-09T08:26:31;23.30;53.10
71237;DHT22;58984;51.960;5.582;2022-09-09T08:28:58;23.30;53.30
71237;DHT22;58984;51.960;5.582;2022-09-09T08:31:35;23.40;53.10
71237;DHT22;58984;51.960;5.582;2022-09-09T08:34:03;23.30;53.10
71237;DHT22;58984;51.960;5.582;2022-09-09T08:36:33;23.30;53.00
71237;DHT22;58984;51.960;5.582;2022-09-09T08:38:59;23.40;53.10
71237;DHT22;58984;51.960;5.582;2022-09-09T08:57:52;23.30;53.10
71237;DHT22;58984;51.960;5.582;2022-09-09T09:00:19;23.30;53.00
71237;DHT22;58984;51.960;5.582;2022-09-09T09:03:10;23.40;53.20
71237;DHT22;58984;51.960;5.582;2022-09-09T09:08:37;23.30;53.10
71237;DHT22;58984;51.960;5.582;2022-09-09T09:11:06;23.30;53.10
71237;DHT22;58984;51.960;5.582;2022-09-09T09:18:38;23.40;53.10
71237;DHT22;58984;51.960;5.582;2022-09-09T09:21:16;23.50;53.00
71237;DHT22;58984;51.960;5.582;2022-09-09T09:23:57;23.40;53.20
71237;DHT22;58984;51.960;5.582;2022-09-09T09:26:27;23.40;53.00
71237;DHT22;58984;51.960;5.582;2022-09-09T09:28:55;23.40;53.00
71237;DHT22;58984;51.960;5.582;2022-09-09T09:31:22;23.50;53.00
71237;DHT22;58984;51.960;5.582;2022-09-09T09:33:53;23.50;53.10
71237;DHT22;58984;51.960;5.582;2022-09-09T09:36:20;23.40;53.00
71237;DHT22;58984;51.960;5.582;2022-09-09T09:38:58;23.50;53.00
71237;DHT22;58984;51.960;5.582;2022-09-09T09:41:30;23.40;53.00
71237;DHT22;58984;51.960;5.582;2022-09-09T09:43:56;23.50;53.00
71237;DHT22;58984;51.960;5.582;2022-09-09T09:46:26;23.50;53.00
71237;DHT22;58984;51.960;5.582;2022-09-09T09:49:03;23.50;53.00
71237;DHT22;58984;51.960;5.582;2022-09-09T09:51:31;23.40;53.00
71237;DHT22;58984;51.960;5.582;2022-09-09T09:56:38;23.40;53.10
71237;DHT22;58984;51.960;5.582;2022-09-09T09:59:05;23.60;53.10
71237;DHT22;58984;51.960;5.582;2022-09-09T10:01:43;23.60;53.20
71237;DHT22;58984;51.960;5.582;2022-09-09T10:04:18;23.50;53.00
71237;DHT22;58984;51.960;5.582;2022-09-09T10:06:46;23.50;53.10
71237;DHT22;58984;51.960;5.582;2022-09-09T10:09:26;23.60;53.00
71237;DHT22;58984;51.960;5.582;2022-09-09T10:18:52;23.50;53.00
71237;DHT22;58984;51.960;5.582;2022-09-09T10:27:19;23.50;52.90
71237;DHT22;58984;51.960;5.582;2022-09-09T10:40:34;23.50;53.90
71237;DHT22;58984;51.960;5.582;2022-09-09T10:48:51;23.50;54.00
71237;DHT22;58984;51.960;5.582;2022-09-09T10:51:28;23.50;54.00
71237;DHT22;58984;51.960;5.582;2022-09-09T10:54:00;23.60;53.90
71237;DHT22;58984;51.960;5.582;2022-09-09T10:56:31;23.60;54.10
71237;DHT22;58984;51.960;5.582;2022-09-09T10:59:04;23.60;54.20
71237;DHT22;58984;51.960;5.582;2022-09-09T11:01:40;23.60;54.20
71237;DHT22;58984;51.960;5.582;2022-09-09T11:04:22;23.50;54.40
71237;DHT22;58984;51.960;5.582;2022-09-09T11:06:54;23.50;54.60
71237;DHT22;58984;51.960;5.582;2022-09-09T11:09:24;23.50;54.60
71237;DHT22;58984;51.960;5.582;2022-09-09T11:11:53;23.50;54.60
71237;DHT22;58984;51.960;5.582;2022-09-09T11:16:55;23.60;54.60
71237;DHT22;58984;51.960;5.582;2022-09-09T11:19:34;23.50;54.80
71237;DHT22;58984;51.960;5.582;2022-09-09T11:22:04;23.50;54.80
71237;DHT22;58984;51.960;5.582;2022-09-09T11:24:41;23.60;54.70
71237;DHT22;58984;51.960;5.582;2022-09-09T11:32:54;23.60;55.30
71237;DHT22;58984;51.960;5.582;2022-09-09T11:38:26;23.60;55.30
71237;DHT22;58984;51.960;5.582;2022-09-09T11:40:59;23.60;55.60
71237;DHT22;58984;51.960;5.582;2022-09-09T11:46:04;23.70;55.80
71237;DHT22;58984;51.960;5.582;2022-09-09T11:48:38;23.80;55.80
71237;DHT22;58984;51.960;5.582;2022-09-09T11:51:07;23.70;56.70
71237;DHT22;58984;51.960;5.582;2022-09-09T11:53:35;23.80;55.90
71237;DHT22;58984;51.960;5.582;2022-09-09T11:56:07;23.80;55.70
71237;DHT22;58984;51.960;5.582;2022-09-09T11:58:43;23.80;55.70
71237;DHT22;58984;51.960;5.582;2022-09-09T12:01:27;23.80;55.50
71237;DHT22;58984;51.960;5.582;2022-09-09T12:06:46;23.80;55.50
71237;DHT22;58984;51.960;5.582;2022-09-09T12:15:16;23.80;55.50
71237;DHT22;58984;51.960;5.582;2022-09-09T12:17:48;23.80;55.40
71237;DHT22;58984;51.960;5.582;2022-09-09T12:23:17;23.80;55.40
71237;DHT22;58984;51.960;5.582;2022-09-09T12:29:12;23.90;55.40
71237;DHT22;58984;51.960;5.582;2022-09-09T12:34:32;23.80;55.30
71237;DHT22;58984;51.960;5.582;2022-09-09T12:37:17;23.80;55.50
71237;DHT22;58984;51.960;5.582;2022-09-09T12:39:56;23.80;55.50
71237;DHT22;58984;51.960;5.582;2022-09-09T12:42:22;24.00;55.30
71237;DHT22;58984;51.960;5.582;2022-09-09T12:44:57;24.00;55.10
71237;DHT22;58984;51.960;5.582;2022-09-09T12:50:28;23.80;55.20
71237;DHT22;58984;51.960;5.582;2022-09-09T12:52:57;23.90;55.10
71237;DHT22;58984;51.960;5.582;2022-09-09T12:55:32;23.90;55.30
71237;DHT22;58984;51.960;5.582;2022-09-09T12:57:59;23.80;55.20
71237;DHT22;58984;51.960;5.582;2022-09-09T13:00:26;23.90;55.10
71237;DHT22;58984;51.960;5.582;2022-09-09T13:03:14;23.90;55.10
71237;DHT22;58984;51.960;5.582;2022-09-09T13:05:41;23.80;55.10
71237;DHT22;58984;51.960;5.582;2022-09-09T13:08:10;23.90;54.90
71237;DHT22;58984;51.960;5.582;2022-09-09T13:10:50;23.90;55.00
71237;DHT22;58984;51.960;5.582;2022-09-09T13:13:36;23.90;55.00
71237;DHT22;58984;51.960;5.582;2022-09-09T13:16:03;23.90;54.90
71237;DHT22;58984;51.960;5.582;2022-09-09T13:18:33;23.90;54.90
71237;DHT22;58984;51.960;5.582;2022-09-09T13:21:00;23.90;54.90
71237;DHT22;58984;51.960;5.582;2022-09-09T13:23:37;23.90;54.80
71237;DHT22;58984;51.960;5.582;2022-09-09T13:26:23;23.80;54.80
71237;DHT22;58984;51.960;5.582;2022-09-09T13:28:50;23.80;54.80
71237;DHT22;58984;51.960;5.582;2022-09-09T13:31:42;24.00;54.80
71237;DHT22;58984;51.960;5.582;2022-09-09T13:34:27;23.90;54.90
71237;DHT22;58984;51.960;5.582;2022-09-09T13:37:00;23.90;54.80
71237;DHT22;58984;51.960;5.582;2022-09-09T13:39:32;23.90;54.50
71237;DHT22;58984;51.960;5.582;2022-09-09T13:41:58;24.00;54.50
71237;DHT22;58984;51.960;5.582;2022-09-09T13:44:33;24.00;54.60
71237;DHT22;58984;51.960;5.582;2022-09-09T13:47:20;23.90;54.50
71237;DHT22;58984;51.960;5.582;2022-09-09T13:49:46;23.90;54.50
71237;DHT22;58984;51.960;5.582;2022-09-09T13:52:14;24.00;54.40
71237;DHT22;58984;51.960;5.582;2022-09-09T13:54:41;23.90;54.50
71237;DHT22;58984;51.960;5.582;2022-09-09T13:57:24;24.00;54.60
71237;DHT22;58984;51.960;5.582;2022-09-09T13:59:52;23.90;54.70
71237;DHT22;58984;51.960;5.582;2022-09-09T14:02:18;24.00;54.50
71237;DHT22;58984;51.960;5.582;2022-09-09T14:04:44;24.00;54.50
71237;DHT22;58984;51.960;5.582;2022-09-09T14:07:15;24.00;54.50
71237;DHT22;58984;51.960;5.582;2022-09-09T14:09:41;24.00;54.60
71237;DHT22;58984;51.960;5.582;2022-09-09T14:12:12;24.00;54.60
71237;DHT22;58984;51.960;5.582;2022-09-09T14:14:40;24.00;54.80
71237;DHT22;58984;51.960;5.582;2022-09-09T14:17:07;24.10;54.80
71237;DHT22;58984;51.960;5.582;2022-09-09T14:19:33;24.10;54.70
71237;DHT22;58984;51.960;5.582;2022-09-09T14:21:58;24.00;54.50
71237;DHT22;58984;51.960;5.582;2022-09-09T14:24:24;24.10;54.70
71237;DHT22;58984;51.960;5.582;2022-09-09T14:26:50;24.00;54.60
71237;DHT22;58984;51.960;5.582;2022-09-09T14:29:16;24.00;54.60
71237;DHT22;58984;51.960;5.582;2022-09-09T14:31:41;24.10;54.60
71237;DHT22;58984;51.960;5.582;2022-09-09T14:34:07;24.10;54.60
71237;DHT22;58984;51.960;5.582;2022-09-09T14:36:33;24.10;54.70
71237;DHT22;58984;51.960;5.582;2022-09-09T14:38:58;24.10;54.60
71237;DHT22;58984;51.960;5.582;2022-09-09T14:41:24;24.10;54.60
71237;DHT22;58984;51.960;5.582;2022-09-09T14:43:50;24.20;54.70
71237;DHT22;58984;51.960;5.582;2022-09-09T14:46:19;24.10;54.60
71237;DHT22;58984;51.960;5.582;2022-09-09T14:48:45;24.10;54.60
71237;DHT22;58984;51.960;5.582;2022-09-09T14:51:18;24.20;54.70
71237;DHT22;58984;51.960;5.582;2022-09-09T14:53:44;24.10;54.60
71237;DHT22;58984;51.960;5.582;2022-09-09T14:56:16;24.20;54.70
71237;DHT22;58984;51.960;5.582;2022-09-09T14:58:41;24.20;54.80
71237;DHT22;58984;51.960;5.582;2022-09-09T15:01:09;24.20;54.70
71237;DHT22;58984;51.960;5.582;2022-09-09T15:03:38;24.20;54.80
71237;DHT22;58984;51.960;5.582;2022-09-09T15:06:08;24.20;55.00
71237;DHT22;58984;51.960;5.582;2022-09-09T15:08:36;24.10;55.10
71237;DHT22;58984;51.960;5.582;2022-09-09T15:11:03;24.20;55.10
71237;DHT22;58984;51.960;5.582;2022-09-09T15:13:29;24.20;55.10
71237;DHT22;58984;51.960;5.582;2022-09-09T15:15:54;24.20;55.10
71237;DHT22;58984;51.960;5.582;2022-09-09T15:18:21;24.20;55.10
71237;DHT22;58984;51.960;5.582;2022-09-09T15:20:46;24.20;55.10
71237;DHT22;58984;51.960;5.582;2022-09-09T15:23:13;24.20;55.10
71237;DHT22;58984;51.960;5.582;2022-09-09T15:25:49;24.20;55.10
71237;DHT22;58984;51.960;5.582;2022-09-09T15:28:15;24.20;55.10
71237;DHT22;58984;51.960;5.582;2022-09-09T15:30:41;24.20;55.20
71237;DHT22;58984;51.960;5.582;2022-09-09T15:33:09;24.20;55.20
71237;DHT22;58984;51.960;5.582;2022-09-09T15:35:35;24.20;55.20
71237;DHT22;58984;51.960;5.582;2022-09-09T15:38:02;24.20;55.20
71237;DHT22;58984;51.960;5.582;2022-09-09T15:40:30;24.20;55.20
71237;DHT22;58984;51.960;5.582;2022-09-09T15:42:58;24.20;55.10
71237;DHT22;58984;51.960;5.582;2022-09-09T15:45:23;24.20;55.10
71237;DHT22;58984;51.960;5.582;2022-09-09T15:47:49;24.20;55.10
71237;DHT22;58984;51.960;5.582;2022-09-09T15:50:14;24.20;55.10
71237;DHT22;58984;51.960;5.582;2022-09-09T15:52:40;24.20;55.20
71237;DHT22;58984;51.960;5.582;2022-09-09T15:55:07;24.20;55.10
71237;DHT22;58984;51.960;5.582;2022-09-09T15:57:33;24.20;54.90
71237;DHT22;58984;51.960;5.582;2022-09-09T16:00:00;24.20;55.00
71237;DHT22;58984;51.960;5.582;2022-09-09T16:02:26;24.20;55.00
71237;DHT22;58984;51.960;5.582;2022-09-09T16:04:51;24.20;54.80
71237;DHT22;58984;51.960;5.582;2022-09-09T16:07:16;24.20;54.80
71237;DHT22;58984;51.960;5.582;2022-09-09T16:09:42;24.20;55.10
71237;DHT22;58984;51.960;5.582;2022-09-09T16:12:09;24.20;55.10
71237;DHT22;58984;51.960;5.582;2022-09-09T16:14:37;24.20;55.10
71237;DHT22;58984;51.960;5.582;2022-09-09T16:17:04;24.20;55.00
71237;DHT22;58984;51.960;5.582;2022-09-09T16:19:31;24.20;54.80
71237;DHT22;58984;51.960;5.582;2022-09-09T16:21:56;24.20;54.70
71237;DHT22;58984;51.960;5.582;2022-09-09T16:24:22;24.20;54.60
71237;DHT22;58984;51.960;5.582;2022-09-09T16:26:51;24.20;54.60
71237;DHT22;58984;51.960;5.582;2022-09-09T16:29:19;24.20;54.50
71237;DHT22;58984;51.960;5.582;2022-09-09T16:31:46;24.20;54.40
71237;DHT22;58984;51.960;5.582;2022-09-09T16:34:12;24.20;54.40
71237;DHT22;58984;51.960;5.582;2022-09-09T16:36:39;24.20;54.30
71237;DHT22;58984;51.960;5.582;2022-09-09T16:39:11;24.20;54.40
71237;DHT22;58984;51.960;5.582;2022-09-09T16:41:38;24.20;54.40
71237;DHT22;58984;51.960;5.582;2022-09-09T16:44:07;24.20;54.30
71237;DHT22;58984;51.960;5.582;2022-09-09T16:46:35;24.20;54.30
71237;DHT22;58984;51.960;5.582;2022-09-09T16:49:03;24.10;54.20
71237;DHT22;58984;51.960;5.582;2022-09-09T16:51:35;24.20;54.30
71237;DHT22;58984;51.960;5.582;2022-09-09T16:54:02;24.10;54.20
71237;DHT22;58984;51.960;5.582;2022-09-09T16:56:30;24.20;54.20
71237;DHT22;58984;51.960;5.582;2022-09-09T16:59:00;24.20;54.10
71237;DHT22;58984;51.960;5.582;2022-09-09T17:01:31;24.10;54.10
71237;DHT22;58984;51.960;5.582;2022-09-09T17:04:00;24.20;54.10
71237;DHT22;58984;51.960;5.582;2022-09-09T17:06:27;24.20;54.00
71237;DHT22;58984;51.960;5.582;2022-09-09T17:08:57;24.20;54.00
71237;DHT22;58984;51.960;5.582;2022-09-09T17:11:23;24.10;54.10
71237;DHT22;58984;51.960;5.582;2022-09-09T17:13:49;24.20;54.10
71237;DHT22;58984;51.960;5.582;2022-09-09T17:16:18;24.10;54.00
71237;DHT22;58984;51.960;5.582;2022-09-09T17:18:46;24.10;54.10
71237;DHT22;58984;51.960;5.582;2022-09-09T17:21:15;24.20;54.20
71237;DHT22;58984;51.960;5.582;2022-09-09T17:23:41;24.20;54.20
71237;DHT22;58984;51.960;5.582;2022-09-09T17:26:09;24.20;54.20
71237;DHT22;58984;51.960;5.582;2022-09-09T17:28:36;24.10;54.10
71237;DHT22;58984;51.960;5.582;2022-09-09T17:31:04;24.20;54.20
71237;DHT22;58984;51.960;5.582;2022-09-09T17:33:32;24.20;54.20
71237;DHT22;58984;51.960;5.582;2022-09-09T17:36:06;24.20;54.80
71237;DHT22;58984;51.960;5.582;2022-09-09T17:38:32;24.10;54.20
71237;DHT22;58984;51.960;5.582;2022-09-09T17:41:09;24.20;54.20
71237;DHT22;58984;51.960;5.582;2022-09-09T17:43:35;24.10;54.20
71237;DHT22;58984;51.960;5.582;2022-09-09T17:46:18;24.10;54.40
71237;DHT22;58984;51.960;5.582;2022-09-09T17:48:48;24.00;54.10
71237;DHT22;58984;51.960;5.582;2022-09-09T17:51:19;24.10;54.00
71237;DHT22;58984;51.960;5.582;2022-09-09T17:53:47;24.10;54.00
71237;DHT22;58984;51.960;5.582;2022-09-09T17:56:17;24.10;54.20
71237;DHT22;58984;51.960;5.582;2022-09-09T17:58:43;24.10;54.20
71237;DHT22;58984;51.960;5.582;2022-09-09T18:01:15;24.10;54.20